Time;durP1;ratioP1;P1;durP2;ratioP2;P2;SDS_P1;SDS_P2;PMS_P1;PMS_P2;Temp;Humidity;BMP_temperature;BMP_pressure;BME280_temperature;BME280_humidity;BME280_pressure;Samples;Min_cycle;Max_cycle;Signal;HPM_P1;HPM_P2
2022/03/29 00:00:38;;;;;;;27.17;11.32;;;11.70;90.10;;;;;;5030033;28;20025;-68
2022/03/29 00:03:10;;;;;;;26.25;10.77;;;11.70;90.10;;;;;;5020747;28;20513;-68
2022/03/29 00:05:37;;;;;;;25.67;11.27;;;11.70;90.00;;;;;;5020127;28;20038;-67
2022/03/29 00:08:04;;;;;;;23.42;12.15;;;11.60;90.00;;;;;;5034103;28;20033;-68
2022/03/29 00:10:30;;;;;;;22.85;11.80;;;11.60;89.80;;;;;;5033757;28;20025;-67
2022/03/29 00:12:56;;;;;;;27.77;13.68;;;11.60;89.70;;;;;;5033833;28;20180;-68
2022/03/29 00:15:23;;;;;;;22.00;11.65;;;11.60;89.50;;;;;;5033556;28;20489;-68
2022/03/29 00:17:51;;;;;;;30.92;13.60;;;11.60;89.40;;;;;;5014554;28;20050;-68
2022/03/29 00:20:18;;;;;;;26.02;12.15;;;11.60;89.30;;;;;;5014368;28;20061;-68
2022/03/29 00:22:46;;;;;;;30.70;13.02;;;11.60;89.90;;;;;;5034526;28;20049;-68
2022/03/29 00:25:13;;;;;;;26.30;11.90;;;11.60;89.20;;;;;;5027780;28;20033;-68
2022/03/29 00:27:39;;;;;;;30.50;11.77;;;11.60;89.20;;;;;;5013633;28;20041;-68
2022/03/29 00:30:07;;;;;;;29.52;13.43;;;11.60;89.20;;;;;;5018426;28;20424;-68
2022/03/29 00:32:34;;;;;;;25.55;11.98;;;11.60;89.10;;;;;;5021627;28;20046;-67
2022/03/29 00:35:01;;;;;;;27.00;13.63;;;11.60;89.10;;;;;;5013100;28;20456;-68
2022/03/29 00:37:26;;;;;;;26.65;12.68;;;11.60;89.10;;;;;;5012761;28;20180;-68
2022/03/29 00:39:52;;;;;;;32.17;12.68;;;11.60;89.00;;;;;;5013944;28;20038;-67
2022/03/29 00:42:18;;;;;;;31.75;12.75;;;11.60;89.00;;;;;;5030801;28;20108;-67
2022/03/29 00:44:43;;;;;;;26.48;12.88;;;11.60;89.10;;;;;;5035322;28;20132;-68
2022/03/29 00:47:09;;;;;;;28.63;12.65;;;11.60;89.20;;;;;;5032738;28;20033;-68
2022/03/29 00:49:35;;;;;;;32.42;12.60;;;11.60;89.20;;;;;;5033628;28;20029;-68
2022/03/29 00:52:03;;;;;;;26.85;11.73;;;11.60;89.20;;;;;;5020904;28;20080;-67
2022/03/29 00:54:38;;;;;;;28.25;12.23;;;11.60;89.20;;;;;;5033467;28;20032;-67
2022/03/29 00:57:05;;;;;;;24.30;11.55;;;11.60;89.10;;;;;;5029188;28;20112;-67
2022/03/29 00:59:33;;;;;;;31.52;11.57;;;11.50;89.10;;;;;;5024037;28;20037;-68
2022/03/29 01:02:00;;;;;;;29.80;12.55;;;11.50;89.10;;;;;;5031301;28;20476;-68
2022/03/29 01:04:27;;;;;;;28.65;11.45;;;11.60;89.10;;;;;;5030101;28;20029;-68
2022/03/29 01:06:57;;;;;;;25.80;11.60;;;11.50;89.00;;;;;;5033744;28;20393;-68
2022/03/29 01:09:23;;;;;;;26.40;11.98;;;11.60;89.00;;;;;;5034051;28;20060;-68
2022/03/29 01:11:49;;;;;;;26.13;11.68;;;11.50;88.80;;;;;;5033848;28;20037;-68
2022/03/29 01:14:15;;;;;;;28.05;12.15;;;11.50;88.80;;;;;;5021207;28;20045;-68
2022/03/29 01:19:25;;;;;;;33.05;11.63;;;11.60;88.80;;;;;;5026661;28;20540;-68
2022/03/29 01:21:58;;;;;;;27.58;12.25;;;11.60;88.60;;;;;;5025654;28;20034;-68
2022/03/29 01:24:25;;;;;;;26.10;11.10;;;11.50;88.60;;;;;;5032093;28;20060;-68
2022/03/29 01:26:53;;;;;;;25.85;11.80;;;11.50;88.40;;;;;;5034103;28;20037;-68
2022/03/29 01:29:23;;;;;;;32.53;12.68;;;11.60;88.50;;;;;;5020488;28;20064;-68
2022/03/29 01:31:49;;;;;;;33.08;12.40;;;11.50;88.40;;;;;;5032934;28;20044;-68
2022/03/29 01:34:16;;;;;;;24.67;13.00;;;11.60;88.60;;;;;;5033743;28;20152;-68
2022/03/29 01:36:41;;;;;;;26.42;11.68;;;11.50;88.50;;;;;;5027700;28;20032;-68
2022/03/29 01:39:07;;;;;;;29.42;11.98;;;11.50;88.40;;;;;;5025136;28;20121;-68
2022/03/29 01:41:33;;;;;;;29.40;12.45;;;11.60;88.40;;;;;;5014356;28;20461;-68
2022/03/29 01:43:59;;;;;;;29.33;11.25;;;11.60;88.40;;;;;;5013604;28;20050;-67
2022/03/29 01:46:25;;;;;;;23.58;11.30;;;11.50;88.30;;;;;;5012962;28;20096;-68
2022/03/29 01:48:51;;;;;;;27.17;11.80;;;11.50;88.40;;;;;;5026204;28;20112;-68
2022/03/29 01:51:17;;;;;;;28.85;12.38;;;11.60;88.60;;;;;;5013259;28;20446;-67
2022/03/29 01:53:45;;;;;;;22.98;11.50;;;11.60;88.60;;;;;;5013460;28;20492;-67
2022/03/29 01:56:14;;;;;;;23.58;10.82;;;11.60;88.60;;;;;;5033216;28;20099;-67
2022/03/29 01:58:39;;;;;;;24.10;11.73;;;11.60;88.60;;;;;;5019302;28;20049;-68
2022/03/29 02:01:06;;;;;;;21.42;10.88;;;11.50;88.60;;;;;;5028689;28;20037;-68
2022/03/29 02:03:32;;;;;;;26.30;12.50;;;11.50;88.60;;;;;;5015867;28;20065;-68
2022/03/29 02:05:59;;;;;;;24.77;10.88;;;11.50;88.60;;;;;;5032337;28;20045;-67
2022/03/29 02:08:24;;;;;;;24.30;11.80;;;11.50;88.60;;;;;;5031413;28;20036;-68
2022/03/29 02:10:50;;;;;;;26.00;12.55;;;11.50;88.70;;;;;;5033215;28;20022;-68
2022/03/29 02:13:16;;;;;;;21.70;10.80;;;11.50;88.60;;;;;;5032634;28;20390;-68
2022/03/29 02:15:42;;;;;;;30.77;11.50;;;11.50;88.70;;;;;;5026908;28;20518;-67
2022/03/29 02:18:08;;;;;;;26.05;11.40;;;11.50;88.80;;;;;;5013907;28;20042;-68
2022/03/29 02:20:34;;;;;;;25.15;12.38;;;11.50;88.80;;;;;;5016285;28;20029;-68
2022/03/29 02:23:07;;;;;;;27.40;12.23;;;11.50;88.90;;;;;;5033080;28;20039;-67
2022/03/29 02:25:33;;;;;;;26.90;12.50;;;11.50;89.00;;;;;;5033565;28;20116;-68
2022/03/29 02:27:59;;;;;;;24.73;10.75;;;11.50;88.90;;;;;;5032659;28;20038;-68
2022/03/29 02:30:25;;;;;;;32.45;12.60;;;11.50;88.90;;;;;;5033045;28;20567;-67
2022/03/29 02:32:51;;;;;;;29.13;12.93;;;11.50;88.90;;;;;;5031311;28;20029;-68
2022/03/29 02:35:17;;;;;;;26.08;12.57;;;11.50;88.90;;;;;;5021350;28;20037;-68
2022/03/29 02:37:46;;;;;;;30.20;12.90;;;11.40;88.90;;;;;;5029679;28;20045;-67
2022/03/29 02:40:13;;;;;;;33.13;12.50;;;11.40;89.00;;;;;;5014131;28;20429;-68
2022/03/29 02:42:43;;;;;;;27.63;12.10;;;11.50;89.10;;;;;;5013199;28;20053;-68
2022/03/29 02:45:16;;;;;;;26.45;13.05;;;11.40;89.00;;;;;;5013408;28;20034;-68
2022/03/29 02:47:49;;;;;;;26.05;12.18;;;11.50;89.00;;;;;;5017843;28;20025;-68
2022/03/29 02:50:15;;;;;;;26.98;13.30;;;11.40;89.00;;;;;;5019690;28;20084;-67
2022/03/29 02:52:46;;;;;;;23.13;12.32;;;11.50;89.10;;;;;;5019688;28;20029;-68
2022/03/29 02:55:12;;;;;;;31.85;13.85;;;11.50;89.00;;;;;;5031602;28;20053;-68
2022/03/29 02:57:38;;;;;;;23.95;12.38;;;11.50;89.00;;;;;;5032903;28;20039;-67
2022/03/29 03:00:05;;;;;;;28.90;12.63;;;11.50;89.70;;;;;;5030820;28;20029;-68
2022/03/29 03:02:32;;;;;;;28.15;13.18;;;11.40;89.10;;;;;;5012079;28;20042;-67
2022/03/29 03:04:59;;;;;;;30.30;12.48;;;11.40;89.10;;;;;;5012939;28;20032;-68
2022/03/29 03:07:25;;;;;;;27.45;12.20;;;11.40;89.10;;;;;;5012767;28;20046;-68
2022/03/29 03:09:51;;;;;;;27.02;13.57;;;11.50;89.10;;;;;;5022549;28;20109;-67
2022/03/29 03:12:16;;;;;;;37.40;13.73;;;11.40;89.10;;;;;;5015512;28;20110;-68
2022/03/29 03:14:43;;;;;;;28.67;13.43;;;11.50;89.10;;;;;;5016569;28;20420;-68
2022/03/29 03:17:08;;;;;;;29.13;12.75;;;11.50;89.10;;;;;;5030915;28;20081;-67
2022/03/29 03:19:34;;;;;;;29.90;12.70;;;11.40;89.10;;;;;;5032754;28;20041;-68
2022/03/29 03:22:00;;;;;;;26.50;12.98;;;11.50;89.10;;;;;;5019631;28;20025;-68
2022/03/29 03:24:25;;;;;;;28.55;13.27;;;11.50;89.00;;;;;;5020200;28;20543;-68
2022/03/29 03:26:51;;;;;;;30.20;12.88;;;11.50;89.00;;;;;;5012559;28;20034;-67
2022/03/29 03:29:17;;;;;;;29.88;12.32;;;11.50;89.00;;;;;;5024536;28;20060;-67
2022/03/29 03:31:42;;;;;;;23.35;11.57;;;11.50;89.00;;;;;;5026001;28;20041;-70
2022/03/29 03:34:08;;;;;;;30.98;13.85;;;11.50;89.00;;;;;;5022176;28;20043;-68
2022/03/29 03:36:33;;;;;;;31.95;13.45;;;11.50;89.00;;;;;;5031270;28;20108;-68
2022/03/29 03:38:59;;;;;;;30.88;12.80;;;11.50;89.00;;;;;;5030248;28;20034;-68
2022/03/29 03:41:25;;;;;;;23.63;12.77;;;11.50;89.00;;;;;;5031315;28;20026;-68
2022/03/29 03:43:50;;;;;;;29.20;12.75;;;11.50;89.00;;;;;;5030568;28;20079;-68
2022/03/29 03:46:16;;;;;;;31.23;12.70;;;11.50;89.00;;;;;;5031686;28;20087;-68
2022/03/29 03:48:42;;;;;;;29.52;13.35;;;11.50;89.00;;;;;;5031783;28;20374;-68
2022/03/29 03:51:07;;;;;;;24.75;13.50;;;11.50;89.00;;;;;;5032572;28;20112;-68
2022/03/29 03:53:33;;;;;;;32.13;12.40;;;11.50;89.00;;;;;;5031045;28;20036;-68
2022/03/29 03:55:59;;;;;;;26.48;11.80;;;11.50;89.00;;;;;;5031067;28;20516;-68
2022/03/29 03:58:24;;;;;;;25.65;11.55;;;11.50;88.90;;;;;;5030850;28;20060;-67
2022/03/29 04:00:50;;;;;;;30.75;13.63;;;11.60;89.10;;;;;;5027241;28;20362;-67
2022/03/29 04:03:19;;;;;;;32.92;13.38;;;11.50;89.10;;;;;;5028103;28;20104;-68
2022/03/29 04:05:45;;;;;;;27.50;13.88;;;11.50;89.10;;;;;;5030244;28;20025;-68
2022/03/29 04:08:10;;;;;;;35.63;13.15;;;11.50;89.10;;;;;;5029959;28;20044;-68
2022/03/29 04:10:37;;;;;;;28.17;13.85;;;11.50;89.10;;;;;;5031805;28;20029;-68
2022/03/29 04:13:04;;;;;;;30.63;13.15;;;11.50;89.20;;;;;;5036144;28;20041;-68
2022/03/29 04:15:30;;;;;;;30.73;13.18;;;11.50;89.20;;;;;;5035254;28;20120;-67
2022/03/29 04:17:57;;;;;;;32.75;14.13;;;11.50;89.30;;;;;;5035106;28;20125;-67
2022/03/29 04:20:23;;;;;;;27.10;12.32;;;11.50;89.30;;;;;;5024576;28;20113;-68
2022/03/29 04:22:48;;;;;;;30.90;15.10;;;11.50;89.40;;;;;;5032385;28;20112;-67
2022/03/29 04:25:17;;;;;;;31.63;14.02;;;11.50;89.40;;;;;;5036078;28;20040;-68
2022/03/29 04:27:42;;;;;;;31.00;14.30;;;11.50;89.40;;;;;;5029962;28;20385;-68
2022/03/29 04:30:09;;;;;;;31.77;14.77;;;11.50;89.40;;;;;;5019339;28;20239;-67
2022/03/29 04:32:37;;;;;;;37.30;14.98;;;11.50;89.40;;;;;;5015761;28;20033;-68
2022/03/29 04:35:06;;;;;;;30.40;14.45;;;11.50;89.40;;;;;;5027067;28;20116;-67
2022/03/29 04:37:32;;;;;;;31.30;13.85;;;11.50;89.30;;;;;;5034536;28;20033;-67
2022/03/29 04:39:58;;;;;;;38.03;14.77;;;11.50;89.30;;;;;;5035422;28;20421;-67
2022/03/29 04:42:23;;;;;;;35.30;14.43;;;11.50;89.30;;;;;;5034775;28;20051;-68
2022/03/29 04:44:49;;;;;;;40.40;14.82;;;11.50;89.20;;;;;;5034368;28;20040;-67
2022/03/29 04:47:14;;;;;;;32.97;14.15;;;11.50;89.20;;;;;;5014609;28;20045;-68
2022/03/29 04:49:40;;;;;;;30.77;13.52;;;11.50;89.30;;;;;;5016152;28;20034;-67
2022/03/29 04:52:06;;;;;;;34.90;13.27;;;11.50;89.30;;;;;;5034957;28;20136;-67
2022/03/29 04:54:32;;;;;;;22.42;11.65;;;11.50;89.30;;;;;;5020852;28;20113;-68
2022/03/29 04:57:00;;;;;;;27.98;12.55;;;11.50;89.40;;;;;;5026693;28;20050;-68
2022/03/29 04:59:26;;;;;;;30.83;13.05;;;11.40;89.50;;;;;;5028448;28;20041;-68
2022/03/29 05:01:52;;;;;;;37.63;15.25;;;11.40;89.60;;;;;;5021364;28;20029;-68
2022/03/29 05:04:17;;;;;;;29.38;14.02;;;11.40;89.80;;;;;;5034981;28;20037;-68
2022/03/29 05:06:43;;;;;;;29.45;12.68;;;11.30;89.80;;;;;;5034972;28;20026;-67
2022/03/29 05:09:09;;;;;;;30.33;12.90;;;11.40;89.90;;;;;;5032748;28;20038;-68
2022/03/29 05:11:35;;;;;;;33.72;13.95;;;11.30;89.90;;;;;;5034343;28;20040;-71
2022/03/29 05:14:01;;;;;;;28.85;14.02;;;11.30;90.00;;;;;;5032893;28;20091;-72
2022/03/29 05:16:27;;;;;;;27.50;13.95;;;11.30;90.00;;;;;;5029164;28;20021;-72
2022/03/29 05:18:53;;;;;;;35.10;15.63;;;11.30;90.10;;;;;;5028622;28;20044;-68
2022/03/29 05:21:18;;;;;;;34.33;14.73;;;11.30;90.10;;;;;;5031465;28;20629;-68
2022/03/29 05:23:44;;;;;;;39.28;15.73;;;11.30;90.10;;;;;;5030631;28;20035;-67
2022/03/29 05:26:10;;;;;;;32.67;15.38;;;11.30;90.10;;;;;;5033676;28;20473;-67
2022/03/29 05:28:36;;;;;;;36.00;14.23;;;11.30;90.00;;;;;;5032622;28;20083;-68
2022/03/29 05:31:02;;;;;;;36.65;14.93;;;11.30;90.00;;;;;;5030503;28;20366;-66
2022/03/29 05:33:27;;;;;;;35.78;16.90;;;11.30;90.00;;;;;;5032142;28;20029;-66
2022/03/29 05:35:53;;;;;;;33.47;14.88;;;11.30;90.00;;;;;;5032042;28;20033;-66
2022/03/29 05:38:19;;;;;;;38.33;15.80;;;11.30;90.00;;;;;;5031080;28;20055;-67
2022/03/29 05:40:51;;;;;;;35.50;15.48;;;11.30;90.00;;;;;;5030068;28;20362;-67
2022/03/29 05:43:17;;;;;;;40.30;15.70;;;11.30;90.00;;;;;;5032430;28;20052;-67
2022/03/29 05:45:44;;;;;;;27.92;15.38;;;11.30;90.00;;;;;;5035287;28;20025;-67
2022/03/29 05:50:57;;;;;;;30.45;15.23;;;11.40;90.00;;;;;;5031699;28;20035;-67
2022/03/29 05:53:23;;;;;;;27.70;12.35;;;11.40;90.20;;;;;;5030852;28;20427;-68
2022/03/29 05:55:49;;;;;;;35.72;14.93;;;11.40;90.00;;;;;;5031754;28;20049;-70
2022/03/29 05:58:16;;;;;;;29.10;14.20;;;11.40;90.00;;;;;;5029949;28;20049;-67
2022/03/29 06:00:42;;;;;;;31.27;13.77;;;11.40;90.00;;;;;;5030091;28;20036;-67
2022/03/29 06:03:08;;;;;;;32.75;14.05;;;11.40;90.00;;;;;;5029582;28;20033;-67
2022/03/29 06:05:34;;;;;;;35.83;13.70;;;11.30;90.00;;;;;;5029262;28;20044;-71
2022/03/29 06:07:59;;;;;;;28.67;14.70;;;11.30;90.00;;;;;;5032181;28;20071;-70
2022/03/29 06:10:25;;;;;;;34.30;14.15;;;11.30;90.00;;;;;;5030055;28;20072;-67
2022/03/29 06:12:51;;;;;;;28.50;13.60;;;11.30;90.10;;;;;;5031337;28;20040;-68
2022/03/29 06:15:20;;;;;;;29.15;12.45;;;11.30;90.10;;;;;;5017591;28;20046;-67
2022/03/29 06:17:45;;;;;;;30.85;13.10;;;11.30;90.40;;;;;;5024646;28;20045;-67
2022/03/29 06:20:12;;;;;;;30.02;13.65;;;11.20;90.20;;;;;;5031771;28;20021;-67
2022/03/29 06:22:44;;;;;;;36.33;13.40;;;11.20;90.30;;;;;;5033225;28;20079;-67
2022/03/29 06:25:12;;;;;;;35.40;13.83;;;11.20;90.30;;;;;;5013101;28;20037;-67
2022/03/29 06:27:37;;;;;;;33.08;15.13;;;11.20;90.40;;;;;;5019624;28;20088;-67
2022/03/29 06:30:04;;;;;;;36.13;14.52;;;11.20;90.50;;;;;;5024031;28;20061;-67
2022/03/29 06:32:30;;;;;;;32.88;14.25;;;11.10;90.50;;;;;;5013320;28;20076;-68
2022/03/29 06:34:56;;;;;;;36.75;15.50;;;11.20;90.60;;;;;;5030638;28;20112;-67
2022/03/29 06:37:21;;;;;;;39.70;16.20;;;11.20;90.60;;;;;;5032434;28;20037;-67
2022/03/29 06:39:47;;;;;;;35.42;14.23;;;11.20;90.60;;;;;;5023297;28;20034;-67
2022/03/29 06:42:18;;;;;;;35.08;15.43;;;11.20;90.60;;;;;;5027879;28;20500;-67
2022/03/29 06:44:44;;;;;;;34.05;15.60;;;11.20;90.60;;;;;;5033173;28;20091;-67
2022/03/29 06:47:11;;;;;;;31.75;14.02;;;11.20;90.50;;;;;;5019267;28;20120;-68
2022/03/29 06:49:36;;;;;;;37.42;14.00;;;11.20;90.60;;;;;;5033707;28;20033;-67
2022/03/29 06:52:02;;;;;;;32.10;13.43;;;11.20;90.50;;;;;;5032162;28;20124;-67
2022/03/29 06:54:30;;;;;;;37.10;14.10;;;11.30;90.60;;;;;;5031774;28;20523;-66
2022/03/29 06:56:56;;;;;;;30.30;13.80;;;11.20;90.50;;;;;;5032024;28;20056;-67
2022/03/29 06:59:22;;;;;;;34.03;14.18;;;11.30;90.50;;;;;;5032550;28;20041;-67
2022/03/29 07:01:48;;;;;;;35.00;14.75;;;11.30;90.50;;;;;;5032246;28;20500;-67
2022/03/29 07:04:13;;;;;;;31.40;14.63;;;11.20;90.50;;;;;;5022105;28;20060;-67
2022/03/29 07:06:39;;;;;;;35.03;13.15;;;11.30;90.60;;;;;;5030565;28;20030;-67
2022/03/29 07:11:49;;;;;;;29.98;9.48;;;11.30;90.50;;;;;;5019246;28;20052;-67
2022/03/29 07:14:15;;;;;;;27.52;8.60;;;11.40;90.50;;;;;;5032867;28;20397;-67
2022/03/29 07:16:43;;;;;;;25.23;9.20;;;11.40;90.40;;;;;;5020368;28;20029;-67
2022/03/29 07:19:09;;;;;;;29.50;9.00;;;11.40;90.30;;;;;;5024525;28;20045;-67
2022/03/29 07:21:38;;;;;;;30.20;8.60;;;11.30;90.10;;;;;;5027924;28;20032;-69
2022/03/29 07:24:04;;;;;;;24.42;8.77;;;11.30;90.30;;;;;;5022807;28;20053;-66
2022/03/29 07:26:30;;;;;;;24.17;8.88;;;11.30;90.30;;;;;;5027606;28;20037;-67
2022/03/29 07:28:56;;;;;;;31.48;10.07;;;11.30;90.40;;;;;;5021864;28;20065;-67
2022/03/29 07:31:22;;;;;;;26.75;9.48;;;11.30;90.40;;;;;;5015389;28;20152;-67
2022/03/29 07:33:50;;;;;;;21.20;8.52;;;11.30;90.30;;;;;;5021679;28;20022;-67
2022/03/29 07:36:16;;;;;;;24.80;7.97;;;11.30;90.30;;;;;;5015048;28;20782;-67
2022/03/29 07:38:42;;;;;;;25.70;9.15;;;11.30;90.10;;;;;;5032283;28;20037;-67
2022/03/29 07:41:07;;;;;;;17.98;7.88;;;11.30;90.30;;;;;;5026061;28;20108;-67
2022/03/29 07:43:33;;;;;;;19.52;7.60;;;11.20;90.20;;;;;;5021149;28;20151;-67
2022/03/29 07:45:59;;;;;;;23.10;9.00;;;11.20;90.20;;;;;;5034236;28;20311;-67
2022/03/29 07:48:25;;;;;;;17.88;8.05;;;11.20;90.30;;;;;;5025052;28;20037;-67
2022/03/29 07:50:51;;;;;;;30.83;8.27;;;11.20;90.20;;;;;;5033324;28;20033;-67
2022/03/29 07:53:17;;;;;;;26.60;9.50;;;11.20;90.20;;;;;;5024615;28;20069;-67
2022/03/29 07:55:42;;;;;;;25.35;9.45;;;11.20;90.20;;;;;;5029626;28;20072;-67
2022/03/29 07:58:08;;;;;;;27.13;7.72;;;11.20;90.20;;;;;;5027482;28;20388;-67
2022/03/29 08:00:35;;;;;;;24.70;7.95;;;11.20;90.00;;;;;;5035729;28;20025;-67
2022/03/29 08:03:32;;;;;;;29.60;9.43;;;11.10;90.00;;;;;;5023481;28;20069;-67
2022/03/29 08:06:02;;;;;;;19.92;6.75;;;11.20;90.00;;;;;;5025930;28;20045;-67
2022/03/29 08:08:29;;;;;;;21.92;8.40;;;11.20;90.40;;;;;;5035609;28;20053;-67
2022/03/29 08:10:55;;;;;;;23.90;8.02;;;11.20;90.10;;;;;;5035653;28;20029;-67
2022/03/29 08:13:22;;;;;;;25.90;6.72;;;11.20;90.10;;;;;;5035090;28;20053;-67
2022/03/29 08:15:52;;;;;;;22.88;6.43;;;11.20;90.10;;;;;;5020504;28;20073;-67
2022/03/29 08:18:18;;;;;;;23.33;6.95;;;11.20;89.90;;;;;;5030590;28;20041;-67
2022/03/29 08:20:45;;;;;;;29.98;6.93;;;11.20;89.90;;;;;;5028447;28;20155;-67
2022/03/29 08:23:12;;;;;;;30.13;6.88;;;11.30;89.50;;;;;;5028956;28;20033;-67
2022/03/29 08:25:39;;;;;;;22.45;5.85;;;11.30;89.50;;;;;;5035324;28;20393;-67
2022/03/29 08:28:06;;;;;;;25.08;6.05;;;11.30;89.50;;;;;;5022150;28;20044;-67
2022/03/29 08:30:33;;;;;;;19.50;6.07;;;11.30;89.80;;;;;;5025434;28;20057;-67
2022/03/29 08:32:59;;;;;;;20.48;7.45;;;11.30;89.90;;;;;;5030227;28;20123;-67
2022/03/29 08:35:25;;;;;;;26.27;6.57;;;11.30;89.30;;;;;;5034250;28;20018;-67
2022/03/29 08:37:51;;;;;;;24.13;6.53;;;11.30;89.10;;;;;;5034549;28;20488;-67
2022/03/29 08:40:21;;;;;;;22.08;6.95;;;11.30;88.80;;;;;;5033967;28;20104;-67
2022/03/29 08:42:49;;;;;;;22.15;6.38;;;11.30;88.80;;;;;;5033800;28;20037;-67
2022/03/29 08:45:16;;;;;;;28.85;6.80;;;11.40;88.70;;;;;;5034472;28;20029;-67
2022/03/29 08:47:49;;;;;;;18.15;5.68;;;11.40;89.20;;;;;;5033520;28;20056;-67
2022/03/29 08:50:15;;;;;;;21.47;6.37;;;11.40;88.60;;;;;;5034391;28;20047;-67
2022/03/29 08:52:41;;;;;;;26.48;6.45;;;11.40;88.60;;;;;;5015790;28;20834;-67
2022/03/29 08:55:09;;;;;;;25.27;6.80;;;11.50;88.30;;;;;;5012980;28;20046;-68
2022/03/29 08:57:35;;;;;;;23.92;6.32;;;11.50;88.00;;;;;;5014975;28;20037;-67
2022/03/29 09:00:04;;;;;;;20.73;6.10;;;11.50;87.90;;;;;;5027678;28;20091;-67
2022/03/29 09:02:33;;;;;;;18.20;5.88;;;11.50;87.40;;;;;;5025267;28;20118;-67
2022/03/29 09:05:30;;;;;;;20.58;5.90;;;11.50;87.50;;;;;;5028945;28;20033;-67
2022/03/29 09:08:03;;;;;;;21.95;6.82;;;11.60;87.50;;;;;;5033164;28;20103;-67
2022/03/29 09:10:46;;;;;;;20.08;5.28;;;11.60;87.60;;;;;;5033715;28;20096;-67
2022/03/29 09:13:31;;;;;;;19.17;5.65;;;11.60;87.70;;;;;;5033860;28;20034;-67
2022/03/29 09:15:59;;;;;;;22.67;4.90;;;11.60;87.80;;;;;;5025865;28;20065;-67
2022/03/29 09:18:25;;;;;;;18.73;5.53;;;11.60;88.10;;;;;;5032816;28;20045;-69
2022/03/29 09:21:11;;;;;;;16.70;4.82;;;11.60;87.60;;;;;;5029225;28;20038;-67
2022/03/29 09:23:37;;;;;;;20.88;4.88;;;11.70;87.80;;;;;;5025750;28;20030;-68
2022/03/29 09:26:03;;;;;;;18.42;4.53;;;11.70;88.20;;;;;;5021559;28;20029;-67
2022/03/29 09:28:37;;;;;;;22.58;4.35;;;11.70;87.90;;;;;;5032617;28;20072;-66
2022/03/29 09:31:22;;;;;;;19.25;4.80;;;11.70;87.90;;;;;;5031503;28;20373;-66
2022/03/29 09:33:49;;;;;;;25.67;4.57;;;11.70;87.70;;;;;;5032959;28;20136;-66
2022/03/29 09:36:20;;;;;;;18.90;4.70;;;11.70;87.70;;;;;;5033094;28;20056;-67
2022/03/29 09:38:48;;;;;;;23.00;4.63;;;11.80;88.90;;;;;;5033199;28;20118;-66
2022/03/29 09:41:20;;;;;;;23.27;5.00;;;11.80;87.90;;;;;;5022924;28;20568;-66
2022/03/29 09:44:21;;;;;;;18.58;5.00;;;11.90;87.40;;;;;;5020763;28;20044;-66
2022/03/29 09:47:00;;;;;;;18.73;4.60;;;11.90;87.40;;;;;;5029658;28;20142;-67
2022/03/29 09:49:27;;;;;;;26.70;5.32;;;11.90;87.40;;;;;;5013286;28;20445;-66
2022/03/29 09:52:15;;;;;;;20.85;4.60;;;11.90;87.60;;;;;;5012742;28;20034;-66
2022/03/29 09:54:42;;;;;;;21.02;4.80;;;11.90;87.40;;;;;;5027006;28;20030;-66
2022/03/29 09:57:09;;;;;;;20.65;4.95;;;11.90;87.00;;;;;;5031709;28;20047;-66
2022/03/29 09:59:48;;;;;;;22.98;4.30;;;12.00;86.40;;;;;;5032215;28;20033;-66
2022/03/29 10:02:13;;;;;;;18.25;4.60;;;11.90;86.60;;;;;;5021351;28;20191;-66
2022/03/29 10:04:40;;;;;;;20.55;4.75;;;12.00;87.40;;;;;;5024831;28;20120;-66
2022/03/29 10:07:09;;;;;;;16.05;4.18;;;11.90;87.80;;;;;;5012298;28;20137;-66
2022/03/29 10:09:38;;;;;;;21.00;4.05;;;11.90;89.00;;;;;;5020514;28;20072;-66
2022/03/29 10:12:11;;;;;;;18.33;4.60;;;11.90;89.00;;;;;;5031364;28;20077;-66
2022/03/29 10:14:39;;;;;;;;;;;11.90;88.60;;;;;;5025178;28;20081;-66
2022/03/29 10:17:06;;;;;;;15.25;4.07;;;11.90;89.50;;;;;;5031644;28;19913;-65
2022/03/29 10:19:33;;;;;;;12.27;3.85;;;12.00;88.50;;;;;;5031857;28;20083;-66
2022/03/29 10:22:00;;;;;;;17.35;4.70;;;11.90;88.40;;;;;;5030406;28;20476;-66
2022/03/29 10:24:26;;;;;;;19.77;4.68;;;11.90;88.50;;;;;;5031327;28;20081;-66
2022/03/29 10:26:53;;;;;;;20.92;4.65;;;12.00;87.90;;;;;;5030189;28;20183;-66
2022/03/29 10:29:25;;;;;;;18.73;5.07;;;12.00;88.10;;;;;;5032111;28;20025;-66
2022/03/29 10:32:05;;;;;;;21.83;4.43;;;12.00;87.60;;;;;;5012095;28;20065;-66
2022/03/29 10:34:37;;;;;;;28.63;5.45;;;12.00;87.80;;;;;;5025384;28;20736;-66
2022/03/29 10:37:15;;;;;;;21.70;4.65;;;12.00;87.40;;;;;;5012129;28;20037;-66
2022/03/29 10:40:02;;;;;;;20.65;5.25;;;12.00;87.20;;;;;;5029072;28;20140;-66
2022/03/29 10:42:44;;;;;;;18.52;5.25;;;12.10;87.10;;;;;;5031032;28;20477;-66
2022/03/29 10:45:16;;;;;;;23.85;5.45;;;12.10;87.30;;;;;;5032378;28;20029;-66
2022/03/29 10:48:06;;;;;;;23.85;5.70;;;12.10;86.60;;;;;;5018080;28;20037;-66
2022/03/29 10:50:53;;;;;;;16.42;4.75;;;12.10;86.40;;;;;;5028706;28;20037;-66
2022/03/29 10:53:29;;;;;;;14.55;5.10;;;12.20;86.30;;;;;;5020380;28;20041;-66
2022/03/29 10:56:13;;;;;;;20.38;4.78;;;12.20;86.30;;;;;;5011571;28;20404;-66
2022/03/29 10:59:09;;;;;;;21.92;4.95;;;12.30;86.40;;;;;;5011490;28;20038;-66
2022/03/29 11:01:37;;;;;;;11.65;4.28;;;12.30;86.60;;;;;;5029244;28;20037;-66
2022/03/29 11:04:06;;;;;;;23.13;5.60;;;12.40;87.40;;;;;;5029082;28;20065;-66
2022/03/29 11:06:31;;;;;;;12.63;4.22;;;12.40;86.90;;;;;;5027929;28;20029;-66
2022/03/29 11:09:09;;;;;;;22.92;5.35;;;12.40;87.50;;;;;;5030099;28;20377;-66
2022/03/29 11:12:07;;;;;;;12.80;4.85;;;12.40;86.60;;;;;;5031481;28;20026;-66
2022/03/29 11:14:34;;;;;;;22.95;6.05;;;12.50;86.20;;;;;;5016245;28;20042;-66
2022/03/29 11:17:09;;;;;;;18.02;5.93;;;12.50;86.70;;;;;;5031167;28;20389;-66
2022/03/29 11:19:48;;;;;;;19.52;6.00;;;12.50;86.80;;;;;;5028697;28;20037;-66
2022/03/29 11:22:29;;;;;;;19.08;5.93;;;12.50;86.80;;;;;;5028382;28;20389;-66
2022/03/29 11:24:58;;;;;;;17.80;5.53;;;12.60;87.60;;;;;;5018874;28;20029;-66
2022/03/29 11:27:26;;;;;;;20.95;5.20;;;12.60;87.80;;;;;;5031521;28;20022;-66
2022/03/29 11:29:53;;;;;;;19.95;6.35;;;12.60;87.60;;;;;;5028722;28;20047;-66
2022/03/29 11:32:19;;;;;;;20.25;7.38;;;12.60;86.90;;;;;;5029723;28;20086;-66
2022/03/29 11:34:50;;;;;;;23.75;6.60;;;12.60;86.80;;;;;;5028605;28;20051;-66
2022/03/29 11:37:33;;;;;;;16.65;5.38;;;12.70;87.00;;;;;;5028770;28;20021;-66
2022/03/29 11:40:06;;;;;;;20.48;7.80;;;12.70;86.80;;;;;;5029871;28;20033;-66
2022/03/29 11:42:41;;;;;;;18.87;6.50;;;12.70;86.60;;;;;;5029498;28;20116;-66
2022/03/29 11:45:07;;;;;;;19.05;6.85;;;12.70;87.20;;;;;;5025480;28;20132;-66
2022/03/29 11:47:33;;;;;;;25.67;7.47;;;12.80;87.60;;;;;;5030187;28;20033;-66
2022/03/29 11:49:59;;;;;;;21.02;7.00;;;12.80;87.50;;;;;;5028934;28;20465;-67
2022/03/29 11:52:33;;;;;;;22.20;6.47;;;12.80;87.80;;;;;;5026819;28;20110;-66
2022/03/29 11:54:59;;;;;;;22.67;6.25;;;12.80;87.20;;;;;;5029428;28;20042;-67
2022/03/29 11:57:25;;;;;;;21.95;7.45;;;12.80;87.70;;;;;;5025232;28;20053;-67
2022/03/29 11:59:52;;;;;;;17.95;6.10;;;12.90;87.70;;;;;;5025371;28;20037;-67
2022/03/29 12:02:18;;;;;;;21.92;6.53;;;12.90;87.30;;;;;;5027659;28;20029;-67
2022/03/29 12:04:45;;;;;;;24.30;6.65;;;12.90;86.90;;;;;;5028136;28;20037;-66
2022/03/29 12:07:11;;;;;;;18.55;6.07;;;12.90;86.20;;;;;;5025459;28;20083;-66
2022/03/29 12:09:37;;;;;;;13.27;5.70;;;12.90;86.60;;;;;;5027207;28;20029;-67
2022/03/29 12:12:03;;;;;;;18.38;5.82;;;13.00;86.80;;;;;;5028097;28;20490;-73
2022/03/29 12:14:31;;;;;;;29.42;5.50;;;13.00;86.80;;;;;;5028891;28;20381;-66
2022/03/29 12:17:06;;;;;;;24.85;6.93;;;13.00;87.20;;;;;;5029854;28;20037;-67
2022/03/29 12:19:33;;;;;;;25.48;6.70;;;13.00;86.90;;;;;;5025730;28;20071;-66
2022/03/29 12:22:02;;;;;;;22.92;7.47;;;13.00;88.00;;;;;;5029361;28;20541;-65
2022/03/29 12:24:32;;;;;;;17.58;6.15;;;13.00;87.00;;;;;;5028138;28;20419;-65
2022/03/29 12:27:01;;;;;;;14.43;5.85;;;13.00;86.70;;;;;;5028962;28;20049;-65
2022/03/29 12:29:27;;;;;;;30.58;7.75;;;13.00;86.40;;;;;;5027132;28;20129;-66
2022/03/29 12:31:54;;;;;;;16.08;6.90;;;13.10;84.70;;;;;;5027339;28;20033;-65
2022/03/29 12:34:23;;;;;;;16.65;5.85;;;13.10;84.40;;;;;;5031926;28;20445;-66
2022/03/29 12:36:53;;;;;;;26.02;7.35;;;13.10;84.00;;;;;;5030168;28;20045;-66
2022/03/29 12:39:22;;;;;;;19.75;5.35;;;13.10;84.10;;;;;;5028851;28;20452;-66
2022/03/29 12:41:48;;;;;;;15.68;6.00;;;13.10;85.10;;;;;;5032861;28;20350;-66
2022/03/29 12:44:26;;;;;;;16.33;5.80;;;13.20;85.50;;;;;;5032604;28;20044;-66